createdAt,value
2018-12-31T11:53:23.636Z,2.43
2018-12-31T11:56:04.956Z,2.40
2018-12-31T11:58:46.846Z,2.58
2018-12-31T12:01:29.025Z,2.60
2018-12-31T12:04:11.138Z,2.98
2018-12-31T12:06:52.568Z,2.80
2018-12-31T12:09:34.733Z,2.20
2018-12-31T12:12:16.932Z,2.58
2018-12-31T12:14:58.709Z,2.30
2018-12-31T12:17:40.841Z,2.90
2018-12-31T12:20:23.009Z,2.20
2018-12-31T12:23:05.167Z,2.10
2018-12-31T12:25:47.124Z,2.30
2018-12-31T12:28:28.950Z,2.67
2018-12-31T12:31:11.293Z,3.67
2018-12-31T12:33:53.358Z,3.90
2018-12-31T12:36:35.454Z,4.10
2018-12-31T12:39:17.789Z,2.80
2018-12-31T12:41:59.973Z,2.60
2018-12-31T12:44:41.882Z,2.30
2018-12-31T12:47:23.721Z,2.25
2018-12-31T12:50:05.715Z,2.22
2018-12-31T12:52:47.483Z,2.22
2018-12-31T12:55:29.765Z,2.37
2018-12-31T12:58:12.041Z,2.42
2018-12-31T13:00:54.000Z,2.00
2018-12-31T13:03:36.091Z,2.10
2018-12-31T13:06:17.435Z,1.90
2018-12-31T13:08:59.749Z,2.40
2018-12-31T13:11:41.929Z,2.13
2018-12-31T13:14:23.917Z,2.40
2018-12-31T13:17:05.848Z,2.40
2018-12-31T13:19:47.285Z,2.67
2018-12-31T13:22:29.628Z,2.60
2018-12-31T13:25:11.321Z,3.25
2018-12-31T13:27:53.272Z,3.20
2018-12-31T13:30:34.799Z,4.05
2018-12-31T13:33:16.787Z,4.08
2018-12-31T13:35:58.638Z,3.98
2018-12-31T13:38:40.365Z,3.25
2018-12-31T13:41:22.261Z,3.70
2018-12-31T13:44:03.985Z,4.30
2018-12-31T13:46:45.893Z,4.17
2018-12-31T13:49:28.074Z,3.80
2018-12-31T13:52:08.470Z,3.63
2018-12-31T13:54:57.640Z,3.23
2018-12-31T13:57:39.674Z,3.33
2018-12-31T14:00:22.003Z,3.30
2018-12-31T14:03:04.101Z,3.47
2018-12-31T14:05:46.392Z,3.55
2018-12-31T14:08:28.322Z,2.87
2018-12-31T14:11:13.586Z,3.40
2018-12-31T14:13:54.950Z,3.37
2018-12-31T14:16:36.717Z,3.90
2018-12-31T14:19:18.356Z,4.60
2018-12-31T14:22:00.052Z,4.87
2018-12-31T14:24:42.191Z,6.10
2018-12-31T14:27:23.905Z,5.10
2018-12-31T14:30:05.860Z,4.22
2018-12-31T14:32:47.672Z,4.37
2018-12-31T14:35:29.691Z,4.27
2018-12-31T14:38:11.573Z,3.98
2018-12-31T14:40:53.584Z,4.90
2018-12-31T14:43:35.460Z,5.03
2018-12-31T14:46:17.634Z,5.53
2018-12-31T14:48:59.153Z,5.80
2018-12-31T14:51:40.477Z,5.53
2018-12-31T14:54:22.784Z,6.47
2018-12-31T14:57:04.329Z,6.72
2018-12-31T14:59:46.557Z,6.12
2018-12-31T15:02:28.348Z,6.15
2018-12-31T15:05:10.540Z,6.10
2018-12-31T15:07:52.528Z,5.95
2018-12-31T15:10:34.648Z,6.20
2018-12-31T15:13:16.485Z,6.90
2018-12-31T15:15:58.589Z,6.72
2018-12-31T15:18:40.949Z,6.17
2018-12-31T15:21:22.401Z,7.05
2018-12-31T15:24:04.541Z,7.60
2018-12-31T15:26:47.615Z,6.62
2018-12-31T15:29:29.276Z,6.10
2018-12-31T15:32:11.411Z,6.62
2018-12-31T15:34:53.620Z,7.17
2018-12-31T15:37:35.517Z,7.00
2018-12-31T15:40:17.333Z,7.47
2018-12-31T15:42:59.513Z,7.72
2018-12-31T15:45:41.506Z,7.40
2018-12-31T15:48:23.594Z,6.90
2018-12-31T15:51:05.220Z,6.90
2018-12-31T15:53:47.321Z,7.90
2018-12-31T15:56:28.581Z,8.35
2018-12-31T15:59:10.899Z,7.47
2018-12-31T16:01:52.992Z,8.30
2018-12-31T16:04:35.057Z,7.20
2018-12-31T16:10:21.144Z,9.40
2018-12-31T16:13:03.702Z,7.95
2018-12-31T16:15:46.303Z,7.43
2018-12-31T16:18:28.562Z,7.90
2018-12-31T16:21:10.577Z,7.50
2018-12-31T16:23:52.306Z,9.35
2018-12-31T16:26:37.597Z,13.65
2018-12-31T16:29:19.370Z,18.50
2018-12-31T16:32:00.810Z,13.35
2018-12-31T16:34:42.946Z,11.05
2018-12-31T16:37:24.945Z,12.03
2018-12-31T16:40:07.338Z,17.73
2018-12-31T16:42:49.411Z,13.10
2018-12-31T16:45:31.533Z,9.70
2018-12-31T16:48:13.348Z,11.38
2018-12-31T16:50:54.869Z,8.93
2018-12-31T16:53:37.341Z,9.95
2018-12-31T16:56:19.373Z,9.65
2018-12-31T16:59:00.923Z,8.80
2018-12-31T17:01:42.686Z,9.00
2018-12-31T17:04:24.808Z,12.05
2018-12-31T17:07:07.025Z,10.25
2018-12-31T17:09:50.172Z,11.05
2018-12-31T17:12:31.993Z,8.95
2018-12-31T17:15:14.169Z,8.33
2018-12-31T17:17:56.873Z,7.90
2018-12-31T17:20:38.882Z,8.40
2018-12-31T17:23:20.735Z,7.25
2018-12-31T17:26:02.773Z,6.65
2018-12-31T17:28:44.825Z,8.27
2018-12-31T17:31:26.190Z,8.35
2018-12-31T17:34:07.959Z,8.93
2018-12-31T17:36:50.158Z,9.07
2018-12-31T17:39:32.404Z,8.80
2018-12-31T17:42:14.541Z,8.75
2018-12-31T17:44:56.451Z,9.23
2018-12-31T17:47:38.487Z,9.10
2018-12-31T17:50:20.298Z,8.55
2018-12-31T17:53:02.225Z,8.50
2018-12-31T17:55:44.313Z,7.53
2018-12-31T17:58:26.078Z,8.48
2018-12-31T18:01:07.576Z,8.20
2018-12-31T18:03:49.703Z,7.47
2018-12-31T18:06:31.745Z,9.83
2018-12-31T18:09:13.804Z,11.28
2018-12-31T18:11:55.581Z,10.70
2018-12-31T18:14:37.701Z,11.97
2018-12-31T18:17:19.947Z,10.58
2018-12-31T18:20:01.974Z,11.47
2018-12-31T18:22:44.021Z,65.55
2018-12-31T18:25:25.985Z,15.27
2018-12-31T18:28:08.119Z,10.32
2018-12-31T18:30:50.307Z,11.15
2018-12-31T18:33:32.032Z,10.40
2018-12-31T18:36:14.242Z,10.38
2018-12-31T18:38:56.289Z,10.00
2018-12-31T18:41:37.818Z,9.30
2018-12-31T18:44:19.500Z,9.43
2018-12-31T18:47:01.736Z,11.67
2018-12-31T18:49:42.063Z,12.95
2018-12-31T18:52:31.512Z,15.95
2018-12-31T18:55:13.590Z,14.60
2018-12-31T18:57:55.796Z,16.55
2018-12-31T19:00:38.060Z,14.73
2018-12-31T19:03:20.900Z,13.70
2018-12-31T19:06:02.872Z,12.75
2018-12-31T19:08:44.842Z,11.68
2018-12-31T19:11:26.679Z,13.72
2018-12-31T19:14:08.549Z,12.50
2018-12-31T19:16:51.705Z,18.20
2018-12-31T19:19:33.769Z,29.82
2018-12-31T19:22:15.977Z,31.20
2018-12-31T19:24:57.476Z,26.90
2018-12-31T19:27:38.988Z,24.77
2018-12-31T19:30:20.885Z,24.52
2018-12-31T19:33:01.096Z,28.83
2018-12-31T19:35:50.219Z,26.52
2018-12-31T19:38:51.076Z,26.68
2018-12-31T19:41:32.625Z,25.20
2018-12-31T19:44:14.789Z,23.77
2018-12-31T19:46:56.372Z,25.17
2018-12-31T19:49:37.687Z,19.80
2018-12-31T19:52:20.909Z,19.92
2018-12-31T19:55:03.047Z,47.38
2018-12-31T19:57:48.637Z,49.90
2018-12-31T20:00:30.577Z,29.00
2018-12-31T20:03:12.751Z,23.40
2018-12-31T20:05:55.048Z,22.67
2018-12-31T20:08:37.205Z,19.90
2018-12-31T20:11:19.381Z,15.98
2018-12-31T20:14:01.301Z,14.20
2018-12-31T20:16:42.882Z,14.58
2018-12-31T20:19:25.030Z,19.30
2018-12-31T20:22:07.094Z,21.20
2018-12-31T20:24:48.384Z,17.23
2018-12-31T20:27:30.193Z,12.58
2018-12-31T20:30:12.300Z,13.60
2018-12-31T20:32:54.041Z,16.30
2018-12-31T20:35:36.208Z,13.30
2018-12-31T20:38:18.013Z,13.40
2018-12-31T20:40:59.606Z,12.30
2018-12-31T20:43:41.012Z,12.90
2018-12-31T20:46:22.913Z,12.55
2018-12-31T20:49:04.749Z,15.45
2018-12-31T20:51:46.159Z,15.05
2018-12-31T20:54:27.754Z,14.95
2018-12-31T20:57:09.805Z,16.55
2018-12-31T20:59:51.139Z,16.20
2018-12-31T21:02:33.210Z,14.60
2018-12-31T21:05:15.469Z,15.90
2018-12-31T21:07:57.244Z,14.65
2018-12-31T21:10:39.149Z,15.58
2018-12-31T21:13:21.225Z,15.55
2018-12-31T21:16:02.721Z,16.25
2018-12-31T21:18:45.480Z,15.80
2018-12-31T21:21:27.393Z,16.10
2018-12-31T21:24:09.449Z,14.30
2018-12-31T21:26:51.212Z,16.00
2018-12-31T21:29:33.262Z,14.17
2018-12-31T21:32:15.365Z,14.70
2018-12-31T21:34:57.468Z,15.08
2018-12-31T21:37:39.341Z,14.43
2018-12-31T21:40:21.539Z,14.70
2018-12-31T21:43:03.381Z,14.55
2018-12-31T21:45:45.342Z,14.47
2018-12-31T21:48:26.725Z,14.40
2018-12-31T21:51:08.405Z,14.58
2018-12-31T21:53:50.455Z,14.25
2018-12-31T21:56:32.104Z,14.00
2018-12-31T21:59:14.296Z,14.38
2018-12-31T22:01:55.628Z,15.70
2018-12-31T22:04:37.599Z,14.10
2018-12-31T22:07:19.431Z,15.53
2018-12-31T22:10:01.309Z,16.23
2018-12-31T22:12:43.505Z,16.37
2018-12-31T22:15:24.921Z,14.63
2018-12-31T22:18:06.772Z,15.83
2018-12-31T22:20:48.944Z,16.50
2018-12-31T22:23:30.753Z,17.52
2018-12-31T22:26:12.861Z,18.80
2018-12-31T22:28:55.124Z,17.55
2018-12-31T22:31:37.098Z,14.60
2018-12-31T22:34:19.388Z,15.68
2018-12-31T22:37:00.932Z,15.78
2018-12-31T22:39:42.373Z,19.45
2018-12-31T22:42:24.589Z,18.20
2018-12-31T22:45:06.438Z,16.00
2018-12-31T22:47:47.831Z,15.98
2018-12-31T22:50:29.636Z,16.05
2018-12-31T22:53:11.620Z,15.90
2018-12-31T22:55:53.083Z,14.23
2018-12-31T22:58:33.224Z,17.40
2018-12-31T23:01:22.416Z,19.55
2018-12-31T23:04:03.717Z,21.80
2018-12-31T23:06:45.848Z,29.57
2018-12-31T23:09:27.885Z,56.30
2018-12-31T23:12:10.112Z,116.85
2018-12-31T23:14:51.765Z,88.33
2018-12-31T23:17:34.233Z,67.85
2018-12-31T23:20:16.241Z,104.65
2018-12-31T23:22:58.167Z,81.55
2018-12-31T23:25:40.241Z,46.28
2018-12-31T23:28:22.232Z,37.83
2018-12-31T23:31:03.965Z,40.60
2018-12-31T23:33:45.841Z,35.50
2018-12-31T23:36:28.042Z,22.22
2018-12-31T23:39:09.821Z,19.82
2018-12-31T23:41:51.627Z,21.57
2018-12-31T23:44:33.745Z,24.27
2018-12-31T23:47:15.506Z,34.23
2018-12-31T23:49:57.335Z,56.53
2018-12-31T23:52:39.732Z,78.02
2018-12-31T23:55:25.178Z,107.95
2018-12-31T23:58:07.250Z,134.05
